Time;durP1;ratioP1;P1;durP2;ratioP2;P2;SDS_P1;SDS_P2;PMS_P1;PMS_P2;Temp;Humidity;BMP_temperature;BMP_pressure;BME280_temperature;BME280_humidity;BME280_pressure;Samples;Min_cycle;Max_cycle;Signal;HPM_P1;HPM_P2
2021/07/30 00:01:10;;;;;;;32.08;5.30;;;;;;;;;;4988426;28;20034;-37
2021/07/30 00:03:37;;;;;;;37.90;5.35;;;;;;;;;;4989018;28;20026;-40
2021/07/30 00:06:04;;;;;;;44.78;5.13;;;;;;;;;;4988229;28;20022;-39
2021/07/30 00:08:31;;;;;;;36.00;4.32;;;;;;;;;;4991361;28;20029;-39
2021/07/30 00:10:58;;;;;;;28.20;4.40;;;;;;;;;;4989611;28;20041;-40
2021/07/30 00:13:28;;;;;;;42.10;4.40;;;;;;;;;;4986056;28;20597;-40
2021/07/30 00:15:55;;;;;;;39.90;6.32;;;;;;;;;;4989352;28;20022;-42
2021/07/30 00:18:22;;;;;;;41.85;5.15;;;;;;;;;;4988633;28;20092;-39
2021/07/30 00:20:49;;;;;;;36.28;4.57;;;;;;;;;;4990839;28;20033;-40
2021/07/30 00:23:16;;;;;;;36.22;4.97;;;;;;;;;;4990582;28;20745;-41
2021/07/30 00:25:43;;;;;;;36.50;4.88;;;;;;;;;;4991483;28;20034;-40
2021/07/30 00:28:10;;;;;;;30.45;6.20;;;;;;;;;;4987949;28;20033;-40
2021/07/30 00:30:37;;;;;;;26.60;4.85;;;;;;;;;;4988451;28;20080;-43
2021/07/30 00:33:04;;;;;;;32.35;6.10;;;;;;;;;;4989589;28;20017;-41
2021/07/30 00:35:31;;;;;;;46.70;6.30;;;;;;;;;;4989557;28;20049;-39
2021/07/30 00:37:58;;;;;;;29.42;6.20;;;;;;;;;;4989902;28;20031;-39
2021/07/30 00:40:25;;;;;;;33.25;5.88;;;;;;;;;;4990317;28;20022;-41
2021/07/30 00:42:53;;;;;;;29.50;5.75;;;;;;;;;;4990762;28;20148;-39
2021/07/30 00:45:20;;;;;;;25.50;5.70;;;;;;;;;;4989354;28;20100;-41
2021/07/30 00:47:48;;;;;;;32.17;5.93;;;;;;;;;;4989135;28;20029;-40
2021/07/30 00:50:16;;;;;;;37.38;6.60;;;;;;;;;;4991124;28;20144;-40
2021/07/30 00:52:43;;;;;;;24.98;5.70;;;;;;;;;;4989423;28;20062;-39
2021/07/30 00:55:11;;;;;;;36.38;7.03;;;;;;;;;;4989581;28;20014;-39
2021/07/30 00:57:40;;;;;;;31.75;5.95;;;;;;;;;;4991066;28;20022;-38
2021/07/30 01:00:07;;;;;;;30.45;6.18;;;;;;;;;;4992296;28;20031;-37
2021/07/30 01:02:34;;;;;;;36.40;6.15;;;;;;;;;;4991452;28;20569;-39
2021/07/30 01:05:02;;;;;;;34.67;5.72;;;;;;;;;;4992439;28;20433;-37
2021/07/30 01:07:29;;;;;;;27.50;5.15;;;;;;;;;;4992857;28;20034;-37
2021/07/30 01:09:56;;;;;;;32.75;5.93;;;;;;;;;;4992757;28;20034;-38
2021/07/30 01:12:23;;;;;;;21.45;5.35;;;;;;;;;;4991332;28;20033;-37
2021/07/30 01:14:53;;;;;;;34.67;5.95;;;;;;;;;;4989708;28;20023;-39
2021/07/30 01:17:20;;;;;;;25.10;5.00;;;;;;;;;;4990687;28;20038;-38
2021/07/30 01:19:47;;;;;;;32.08;5.18;;;;;;;;;;4990168;28;20081;-38
2021/07/30 01:22:22;;;;;;;22.23;5.10;;;;;;;;;;4992197;28;20029;-37
2021/07/30 01:24:49;;;;;;;22.95;4.75;;;;;;;;;;4989843;28;20022;-38
2021/07/30 01:27:16;;;;;;;27.45;5.90;;;;;;;;;;4990291;28;20022;-40
2021/07/30 01:29:43;;;;;;;22.60;4.80;;;;;;;;;;4990895;28;20180;-39
2021/07/30 01:32:10;;;;;;;26.67;5.20;;;;;;;;;;4989655;28;20375;-37
2021/07/30 01:34:37;;;;;;;26.92;5.03;;;;;;;;;;4990370;28;20030;-37
2021/07/30 01:37:04;;;;;;;27.45;4.78;;;;;;;;;;4987981;28;20089;-38
2021/07/30 01:39:31;;;;;;;24.30;5.00;;;;;;;;;;4990610;28;20025;-37
2021/07/30 01:41:58;;;;;;;23.67;4.65;;;;;;;;;;4987685;28;20359;-37
2021/07/30 01:44:25;;;;;;;25.15;4.57;;;;;;;;;;4991017;28;20018;-37
2021/07/30 01:46:52;;;;;;;28.70;4.55;;;;;;;;;;4990248;28;20031;-36
2021/07/30 01:49:19;;;;;;;23.05;4.15;;;;;;;;;;4984096;28;20036;-37
2021/07/30 01:51:46;;;;;;;23.27;4.15;;;;;;;;;;4989185;28;20486;-37
2021/07/30 01:54:16;;;;;;;19.52;4.78;;;;;;;;;;4990653;28;20080;-37
2021/07/30 01:56:43;;;;;;;21.63;4.15;;;;;;;;;;4987657;28;20076;-37
2021/07/30 01:59:11;;;;;;;21.25;4.20;;;;;;;;;;4986299;28;20474;-41
2021/07/30 02:01:38;;;;;;;17.08;4.13;;;;;;;;;;4989432;28;20523;-37
2021/07/30 02:04:05;;;;;;;19.70;3.70;;;;;;;;;;4986203;28;20177;-37
2021/07/30 02:06:32;;;;;;;18.77;3.92;;;;;;;;;;4991565;28;20023;-37
2021/07/30 02:09:00;;;;;;;18.33;3.60;;;;;;;;;;4989602;28;20018;-38
2021/07/30 02:11:27;;;;;;;30.85;4.40;;;;;;;;;;4988986;28;20109;-39
2021/07/30 02:16:54;;;;;;;30.70;4.13;;;;;;;;;;4946110;28;20037;-38
2021/07/30 02:19:22;;;;;;;26.35;3.30;;;;;;;;;;4990745;28;20038;-38
2021/07/30 02:21:53;;;;;;;16.42;3.80;;;;;;;;;;4987988;28;20425;-38
2021/07/30 02:24:20;;;;;;;14.65;2.70;;;;;;;;;;4983738;28;20022;-38
2021/07/30 02:26:47;;;;;;;21.38;3.45;;;;;;;;;;4987006;28;20023;-38
2021/07/30 02:29:15;;;;;;;21.17;3.10;;;;;;;;;;4984579;28;20026;-40
2021/07/30 02:31:42;;;;;;;23.05;2.85;;;;;;;;;;4986197;28;20030;-39
2021/07/30 02:34:09;;;;;;;28.58;3.20;;;;;;;;;;4989018;28;20033;-36
2021/07/30 02:36:36;;;;;;;16.23;2.92;;;;;;;;;;4975725;28;20410;-38
2021/07/30 02:39:04;;;;;;;22.67;2.53;;;;;;;;;;4989006;28;20018;-37
2021/07/30 02:41:31;;;;;;;15.50;2.58;;;;;;;;;;4989682;28;20018;-37
2021/07/30 02:43:58;;;;;;;11.75;2.72;;;;;;;;;;4989186;28;20556;-37
2021/07/30 02:46:25;;;;;;;15.48;2.55;;;;;;;;;;4990229;28;20027;-38
2021/07/30 02:48:53;;;;;;;10.25;3.10;;;;;;;;;;4987156;28;20023;-36
2021/07/30 02:51:20;;;;;;;17.77;2.50;;;;;;;;;;4988678;28;20050;-37
2021/07/30 02:53:46;;;;;;;14.32;2.40;;;;;;;;;;4988198;28;20429;-37
2021/07/30 02:56:14;;;;;;;25.75;2.58;;;;;;;;;;4979697;28;20037;-38
2021/07/30 02:58:40;;;;;;;19.10;2.83;;;;;;;;;;4984778;28;20494;-37
2021/07/30 03:01:08;;;;;;;13.02;2.88;;;;;;;;;;4990691;28;20033;-34
2021/07/30 03:03:35;;;;;;;14.90;2.05;;;;;;;;;;4990910;28;20019;-37
2021/07/30 03:06:02;;;;;;;21.77;2.55;;;;;;;;;;4988359;28;20022;-37
2021/07/30 03:08:29;;;;;;;13.43;2.15;;;;;;;;;;4988474;28;20015;-34
2021/07/30 03:10:57;;;;;;;12.90;2.50;;;;;;;;;;4989576;28;20721;-35
2021/07/30 03:13:24;;;;;;;14.68;2.30;;;;;;;;;;4990782;28;20022;-37
2021/07/30 03:15:55;;;;;;;9.85;2.13;;;;;;;;;;4991221;28;20038;-46
2021/07/30 03:18:22;;;;;;;15.40;2.42;;;;;;;;;;4989497;28;20043;-37
2021/07/30 03:20:49;;;;;;;14.10;1.92;;;;;;;;;;4991216;28;20069;-41
2021/07/30 03:23:17;;;;;;;7.40;2.00;;;;;;;;;;4988055;28;20018;-36
2021/07/30 03:25:44;;;;;;;11.88;1.98;;;;;;;;;;4991028;28;20045;-36
2021/07/30 03:28:11;;;;;;;13.55;2.35;;;;;;;;;;4990329;28;20030;-37
2021/07/30 03:30:38;;;;;;;11.82;2.35;;;;;;;;;;4990668;28;20088;-37
2021/07/30 03:33:05;;;;;;;10.45;1.90;;;;;;;;;;4989795;28;20026;-36
2021/07/30 03:35:33;;;;;;;10.10;2.40;;;;;;;;;;4990527;28;20033;-36
2021/07/30 03:38:00;;;;;;;8.68;2.25;;;;;;;;;;4991185;28;20022;-41
2021/07/30 03:40:27;;;;;;;16.58;2.15;;;;;;;;;;4991588;28;20023;-37
2021/07/30 03:42:54;;;;;;;6.57;1.60;;;;;;;;;;4991073;28;20030;-36
2021/07/30 03:45:21;;;;;;;9.35;1.77;;;;;;;;;;4991648;28;20018;-36
2021/07/30 03:47:48;;;;;;;13.40;2.10;;;;;;;;;;4994208;28;20026;-36
2021/07/30 03:50:15;;;;;;;7.25;1.77;;;;;;;;;;4995276;28;20507;-36
2021/07/30 03:52:42;;;;;;;11.00;1.70;;;;;;;;;;4994764;28;20041;-36
2021/07/30 03:55:10;;;;;;;10.07;1.80;;;;;;;;;;4994941;28;20030;-40
2021/07/30 03:57:37;;;;;;;12.30;2.08;;;;;;;;;;4994939;28;20122;-40
2021/07/30 04:00:05;;;;;;;15.30;2.05;;;;;;;;;;4994991;28;20095;-40
2021/07/30 04:02:32;;;;;;;6.82;1.42;;;;;;;;;;4995039;28;20026;-40
2021/07/30 04:04:59;;;;;;;6.35;1.58;;;;;;;;;;4994318;28;20053;-36
2021/07/30 04:07:26;;;;;;;7.47;1.38;;;;;;;;;;4995150;28;20030;-38
2021/07/30 04:09:54;;;;;;;6.85;1.40;;;;;;;;;;4994477;28;20517;-38
2021/07/30 04:12:22;;;;;;;12.23;1.70;;;;;;;;;;4994593;28;20038;-42
2021/07/30 04:14:49;;;;;;;6.78;1.75;;;;;;;;;;4993904;28;20137;-37
2021/07/30 04:17:16;;;;;;;8.68;1.67;;;;;;;;;;4994952;28;20034;-40
2021/07/30 04:19:43;;;;;;;5.82;1.38;;;;;;;;;;4994493;28;20042;-40
2021/07/30 04:22:11;;;;;;;7.40;1.63;;;;;;;;;;4994688;28;20054;-38
2021/07/30 04:24:38;;;;;;;8.43;1.48;;;;;;;;;;4994179;28;20061;-50
2021/07/30 04:27:06;;;;;;;8.32;1.63;;;;;;;;;;4994519;28;20030;-46
2021/07/30 04:29:37;;;;;;;6.90;1.45;;;;;;;;;;4994253;28;20053;-37
2021/07/30 04:32:04;;;;;;;5.82;1.60;;;;;;;;;;4994653;28;20096;-35
2021/07/30 04:34:31;;;;;;;6.25;1.50;;;;;;;;;;4994000;28;20029;-38
2021/07/30 04:36:58;;;;;;;5.80;1.30;;;;;;;;;;4994246;28;20022;-39
2021/07/30 04:39:25;;;;;;;9.68;1.33;;;;;;;;;;4994145;28;20022;-39
2021/07/30 04:41:52;;;;;;;7.30;1.15;;;;;;;;;;4994184;28;20113;-38
2021/07/30 04:44:20;;;;;;;9.23;1.50;;;;;;;;;;4994091;28;20053;-41
2021/07/30 04:46:48;;;;;;;2.70;1.15;;;;;;;;;;4993534;28;20037;-48
2021/07/30 04:49:15;;;;;;;6.20;1.27;;;;;;;;;;4994195;28;20026;-36
2021/07/30 04:51:42;;;;;;;8.90;1.23;;;;;;;;;;4993655;28;20437;-40
2021/07/30 04:54:09;;;;;;;6.22;1.15;;;;;;;;;;4994083;28;20038;-37
2021/07/30 04:56:36;;;;;;;4.50;1.13;;;;;;;;;;4993324;28;20094;-37
2021/07/30 04:59:03;;;;;;;9.50;1.80;;;;;;;;;;4993393;28;20034;-35
2021/07/30 05:01:30;;;;;;;10.38;1.15;;;;;;;;;;4993621;28;20062;-36
2021/07/30 05:03:57;;;;;;;4.82;0.90;;;;;;;;;;4994212;28;20022;-36
2021/07/30 05:06:25;;;;;;;9.15;1.20;;;;;;;;;;4993370;28;20038;-37
2021/07/30 05:08:52;;;;;;;7.75;1.27;;;;;;;;;;4993645;28;20027;-36
2021/07/30 05:11:19;;;;;;;7.63;1.02;;;;;;;;;;4993395;28;20092;-39
2021/07/30 05:13:47;;;;;;;6.20;1.10;;;;;;;;;;4993859;28;20482;-37
2021/07/30 05:16:14;;;;;;;6.22;1.48;;;;;;;;;;4992967;28;20038;-39
2021/07/30 05:18:42;;;;;;;4.78;0.93;;;;;;;;;;4993428;28;20046;-39
2021/07/30 05:21:10;;;;;;;5.10;0.93;;;;;;;;;;4993186;28;20101;-42
2021/07/30 05:23:36;;;;;;;3.45;1.10;;;;;;;;;;4993546;28;20474;-39
2021/07/30 05:26:04;;;;;;;8.32;1.40;;;;;;;;;;4993492;28;20088;-41
2021/07/30 05:28:31;;;;;;;4.47;1.10;;;;;;;;;;4992951;28;20549;-38
2021/07/30 05:30:58;;;;;;;5.60;1.05;;;;;;;;;;4993414;28;20034;-36
2021/07/30 05:33:26;;;;;;;5.75;1.20;;;;;;;;;;4993134;28;20057;-38
2021/07/30 05:35:53;;;;;;;5.03;1.02;;;;;;;;;;4993408;28;20031;-35
2021/07/30 05:38:20;;;;;;;5.97;1.13;;;;;;;;;;4992557;28;20022;-42
2021/07/30 05:40:47;;;;;;;4.20;1.20;;;;;;;;;;4993178;28;20022;-38
2021/07/30 05:43:14;;;;;;;8.98;1.20;;;;;;;;;;4992788;28;20050;-36
2021/07/30 05:45:41;;;;;;;4.60;0.88;;;;;;;;;;4993246;28;20084;-38
2021/07/30 05:48:08;;;;;;;6.20;1.10;;;;;;;;;;4992716;28;20031;-39
2021/07/30 05:50:36;;;;;;;2.45;0.82;;;;;;;;;;4993129;28;20030;-35
2021/07/30 05:53:03;;;;;;;3.80;1.30;;;;;;;;;;4992559;28;20062;-36
2021/07/30 05:55:30;;;;;;;2.20;0.73;;;;;;;;;;4993361;28;20026;-38
2021/07/30 05:57:58;;;;;;;6.07;1.08;;;;;;;;;;4992308;28;20351;-38
2021/07/30 06:00:26;;;;;;;3.67;0.98;;;;;;;;;;4992660;28;20087;-37
2021/07/30 06:02:53;;;;;;;2.85;0.80;;;;;;;;;;4992647;28;20018;-36
2021/07/30 06:05:20;;;;;;;4.07;0.93;;;;;;;;;;4992842;28;20113;-38
2021/07/30 06:07:47;;;;;;;3.33;1.13;;;;;;;;;;4992321;28;20022;-47
2021/07/30 06:10:14;;;;;;;2.40;0.90;;;;;;;;;;4992454;28;20018;-35
2021/07/30 06:12:41;;;;;;;5.32;0.75;;;;;;;;;;4992355;28;20029;-47
2021/07/30 06:15:08;;;;;;;3.38;0.82;;;;;;;;;;4992210;28;20493;-37
2021/07/30 06:17:36;;;;;;;4.57;0.85;;;;;;;;;;4992136;28;20043;-36
2021/07/30 06:20:03;;;;;;;2.58;0.88;;;;;;;;;;4992161;28;20483;-35
2021/07/30 06:22:34;;;;;;;6.60;0.70;;;;;;;;;;4992364;28;20029;-35
2021/07/30 06:25:01;;;;;;;2.38;0.80;;;;;;;;;;4991882;28;20080;-35
2021/07/30 06:27:28;;;;;;;5.55;0.98;;;;;;;;;;4992331;28;20030;-35
2021/07/30 06:29:55;;;;;;;5.20;1.00;;;;;;;;;;4990529;28;20026;-36
2021/07/30 06:32:22;;;;;;;8.95;1.05;;;;;;;;;;4992236;28;20375;-35
2021/07/30 06:34:49;;;;;;;7.20;1.10;;;;;;;;;;4991762;28;20041;-36
2021/07/30 06:37:16;;;;;;;4.88;0.90;;;;;;;;;;4992127;28;20053;-35
2021/07/30 06:39:43;;;;;;;5.53;0.93;;;;;;;;;;4991914;28;20019;-38
2021/07/30 06:42:10;;;;;;;5.03;1.00;;;;;;;;;;4992100;28;20109;-35
2021/07/30 06:44:37;;;;;;;4.55;0.80;;;;;;;;;;4991700;28;20088;-35
2021/07/30 06:47:04;;;;;;;3.33;1.05;;;;;;;;;;4992184;28;20026;-35
2021/07/30 06:49:31;;;;;;;3.00;0.90;;;;;;;;;;4991934;28;20026;-47
2021/07/30 06:51:58;;;;;;;1.92;0.63;;;;;;;;;;4991872;28;20107;-37
2021/07/30 06:54:27;;;;;;;4.20;1.00;;;;;;;;;;4991913;28;20033;-35
2021/07/30 06:56:54;;;;;;;5.90;1.00;;;;;;;;;;4991732;28;20030;-35
2021/07/30 06:59:21;;;;;;;4.50;0.90;;;;;;;;;;4991700;28;20030;-36
2021/07/30 07:01:49;;;;;;;4.43;1.20;;;;;;;;;;4991708;28;20489;-36
2021/07/30 07:04:16;;;;;;;3.85;1.15;;;;;;;;;;4992020;28;20101;-36
2021/07/30 07:06:47;;;;;;;6.72;0.95;;;;;;;;;;4991415;28;20047;-36
2021/07/30 07:09:14;;;;;;;2.85;0.80;;;;;;;;;;4991644;28;20041;-42
2021/07/30 07:11:41;;;;;;;2.50;0.90;;;;;;;;;;4991534;28;20057;-37
2021/07/30 07:14:08;;;;;;;3.17;1.10;;;;;;;;;;4992277;28;20026;-37
2021/07/30 07:16:35;;;;;;;3.30;1.05;;;;;;;;;;4991397;28;20109;-36
2021/07/30 07:19:04;;;;;;;4.60;0.80;;;;;;;;;;4991473;28;20046;-39
2021/07/30 07:21:34;;;;;;;2.10;0.60;;;;;;;;;;4991734;28;20500;-36
2021/07/30 07:24:02;;;;;;;2.03;0.70;;;;;;;;;;4995799;28;20027;-37
2021/07/30 07:26:29;;;;;;;3.13;0.75;;;;;;;;;;4995248;28;20061;-35
2021/07/30 07:28:56;;;;;;;1.70;0.68;;;;;;;;;;4995638;28;20034;-39
2021/07/30 07:31:23;;;;;;;1.60;0.60;;;;;;;;;;4995643;28;20121;-36
2021/07/30 07:33:50;;;;;;;2.15;0.75;;;;;;;;;;4994798;28;20479;-37
2021/07/30 07:36:17;;;;;;;4.30;0.77;;;;;;;;;;4995742;28;20117;-37
2021/07/30 07:38:44;;;;;;;2.35;0.70;;;;;;;;;;4994781;28;20529;-36
2021/07/30 07:41:12;;;;;;;3.65;0.70;;;;;;;;;;4995439;28;20045;-36
2021/07/30 07:43:39;;;;;;;1.70;0.70;;;;;;;;;;4995076;28;20387;-35
2021/07/30 07:46:06;;;;;;;4.45;0.90;;;;;;;;;;4995190;28;20026;-35
2021/07/30 07:48:33;;;;;;;4.72;0.95;;;;;;;;;;4994343;28;20023;-39
2021/07/30 07:51:02;;;;;;;4.45;0.73;;;;;;;;;;4995433;28;20077;-36
2021/07/30 07:53:29;;;;;;;6.80;1.27;;;;;;;;;;4994719;28;20022;-36
2021/07/30 07:56:03;;;;;;;5.90;0.82;;;;;;;;;;4995174;28;20037;-42
2021/07/30 07:58:31;;;;;;;4.78;0.82;;;;;;;;;;4994717;28;20386;-36
2021/07/30 08:00:58;;;;;;;3.20;0.80;;;;;;;;;;4995063;28;20034;-36
2021/07/30 08:03:25;;;;;;;4.57;0.88;;;;;;;;;;4994593;28;20422;-35
2021/07/30 08:05:52;;;;;;;4.32;0.88;;;;;;;;;;4993845;28;20073;-38
2021/07/30 08:08:19;;;;;;;3.10;1.42;;;;;;;;;;4994686;28;20049;-42
2021/07/30 08:10:47;;;;;;;2.22;0.70;;;;;;;;;;4994332;28;20030;-35
2021/07/30 08:13:15;;;;;;;1.90;0.80;;;;;;;;;;4994592;28;20026;-35
2021/07/30 08:15:42;;;;;;;2.78;0.77;;;;;;;;;;4994509;28;20045;-36
2021/07/30 08:18:09;;;;;;;6.80;1.08;;;;;;;;;;4994669;28;20043;-34
2021/07/30 08:20:36;;;;;;;1.60;0.65;;;;;;;;;;4994127;28;20478;-36
2021/07/30 08:23:04;;;;;;;5.93;1.15;;;;;;;;;;4994858;28;20486;-36
2021/07/30 08:25:31;;;;;;;5.15;0.80;;;;;;;;;;4994379;28;20030;-36
2021/07/30 08:27:58;;;;;;;4.30;1.20;;;;;;;;;;4994738;28;20030;-40
2021/07/30 08:30:25;;;;;;;3.88;0.90;;;;;;;;;;4993964;28;20034;-42
2021/07/30 08:32:52;;;;;;;3.53;0.80;;;;;;;;;;4993610;28;20501;-36
2021/07/30 08:35:19;;;;;;;3.63;0.98;;;;;;;;;;4993944;28;20475;-46
2021/07/30 08:37:46;;;;;;;7.63;0.95;;;;;;;;;;4994716;28;20034;-36
2021/07/30 08:40:13;;;;;;;6.35;1.00;;;;;;;;;;4993842;28;20073;-43
2021/07/30 08:42:40;;;;;;;3.50;0.82;;;;;;;;;;4994341;28;20020;-37
2021/07/30 08:45:08;;;;;;;4.05;0.98;;;;;;;;;;4993717;28;20101;-35
2021/07/30 08:47:36;;;;;;;2.95;0.70;;;;;;;;;;4994347;28;20368;-35
2021/07/30 08:50:03;;;;;;;2.30;0.80;;;;;;;;;;4993994;28;20728;-35
2021/07/30 08:52:32;;;;;;;2.80;0.90;;;;;;;;;;4994240;28;20550;-37
2021/07/30 08:54:59;;;;;;;6.07;0.90;;;;;;;;;;4993726;28;20026;-46
2021/07/30 08:57:26;;;;;;;4.18;0.82;;;;;;;;;;4994073;28;20030;-35
2021/07/30 08:59:53;;;;;;;4.70;0.80;;;;;;;;;;4993717;28;20073;-35
2021/07/30 09:02:20;;;;;;;6.07;0.80;;;;;;;;;;4993558;28;20034;-36
2021/07/30 09:04:47;;;;;;;4.05;0.60;;;;;;;;;;4993848;28;20078;-36
2021/07/30 09:07:14;;;;;;;4.35;0.90;;;;;;;;;;4993496;28;20026;-37
2021/07/30 09:09:52;;;;;;;2.58;0.73;;;;;;;;;;4993606;28;20023;-35
2021/07/30 09:12:22;;;;;;;3.00;0.80;;;;;;;;;;4993160;28;20431;-42
2021/07/30 09:14:49;;;;;;;3.88;0.80;;;;;;;;;;4993715;28;20101;-35
2021/07/30 09:17:16;;;;;;;1.20;0.68;;;;;;;;;;4993316;28;20037;-37
2021/07/30 09:20:02;;;;;;;1.33;0.60;;;;;;;;;;4993307;28;20445;-52
2021/07/30 09:22:29;;;;;;;3.72;0.73;;;;;;;;;;4993106;28;20037;-34
2021/07/30 09:24:58;;;;;;;3.15;0.80;;;;;;;;;;4993412;28;20143;-38
2021/07/30 09:27:25;;;;;;;2.10;0.68;;;;;;;;;;4992987;28;20037;-35
2021/07/30 09:30:11;;;;;;;2.67;0.70;;;;;;;;;;4993347;28;20022;-36
2021/07/30 09:32:38;;;;;;;5.00;0.60;;;;;;;;;;4992931;28;20076;-50
2021/07/30 09:35:07;;;;;;;4.30;0.82;;;;;;;;;;4993359;28;20049;-34
2021/07/30 09:37:34;;;;;;;4.35;0.70;;;;;;;;;;4991846;28;20109;-35
2021/07/30 09:40:02;;;;;;;6.20;1.02;;;;;;;;;;4992630;28;20025;-35
2021/07/30 09:42:35;;;;;;;3.72;1.10;;;;;;;;;;4992777;28;20041;-49
2021/07/30 09:45:06;;;;;;;3.97;0.55;;;;;;;;;;4991259;28;20371;-36
2021/07/30 09:47:35;;;;;;;3.70;0.73;;;;;;;;;;4993088;28;20023;-35
2021/07/30 09:50:07;;;;;;;2.78;0.85;;;;;;;;;;4992242;28;20398;-36
2021/07/30 09:52:39;;;;;;;4.13;0.80;;;;;;;;;;4992416;28;20042;-36
2021/07/30 09:55:11;;;;;;;3.47;0.75;;;;;;;;;;4991172;28;20088;-35
2021/07/30 09:57:44;;;;;;;4.87;1.00;;;;;;;;;;4991422;28;20160;-35
2021/07/30 10:00:17;;;;;;;1.88;0.90;;;;;;;;;;4990912;28;20030;-43
2021/07/30 10:02:45;;;;;;;3.92;1.00;;;;;;;;;;4991250;28;20033;-38
2021/07/30 10:05:14;;;;;;;5.65;0.80;;;;;;;;;;4991668;28;20050;-35
2021/07/30 10:07:42;;;;;;;2.92;0.70;;;;;;;;;;4992288;28;20030;-39
2021/07/30 10:12:46;;;;;;;2.25;0.63;;;;;;;;;;4992411;28;20065;-35
2021/07/30 10:15:13;;;;;;;5.55;0.80;;;;;;;;;;4992298;28;20026;-34
2021/07/30 10:17:50;;;;;;;3.40;0.93;;;;;;;;;;4992468;28;20112;-44
2021/07/30 10:20:18;;;;;;;2.47;0.85;;;;;;;;;;4992379;28;20037;-40
2021/07/30 10:22:53;;;;;;;3.67;0.63;;;;;;;;;;4992141;28;20449;-42
2021/07/30 10:25:24;;;;;;;2.88;0.68;;;;;;;;;;4992091;28;20018;-35
2021/07/30 10:27:53;;;;;;;3.85;0.98;;;;;;;;;;4992517;28;20011;-42
2021/07/30 10:30:20;;;;;;;3.75;0.98;;;;;;;;;;4991758;28;20037;-39
2021/07/30 10:32:52;;;;;;;5.40;0.63;;;;;;;;;;4992183;28;20036;-40
2021/07/30 10:35:20;;;;;;;3.70;0.88;;;;;;;;;;4991799;28;20018;-41
2021/07/30 10:37:47;;;;;;;3.38;0.70;;;;;;;;;;4992278;28;20022;-35
2021/07/30 10:40:14;;;;;;;6.10;1.00;;;;;;;;;;4990110;28;20591;-46
2021/07/30 10:43:04;;;;;;;4.43;1.00;;;;;;;;;;4991408;28;20022;-43
2021/07/30 10:45:34;;;;;;;5.90;1.10;;;;;;;;;;4990545;28;20031;-35
2021/07/30 10:48:11;;;;;;;3.28;0.80;;;;;;;;;;4991785;28;20033;-39
2021/07/30 10:51:01;;;;;;;7.70;1.25;;;;;;;;;;4991732;28;20056;-36
2021/07/30 10:53:37;;;;;;;5.20;0.90;;;;;;;;;;4991844;28;20031;-39
2021/07/30 10:56:19;;;;;;;4.22;0.80;;;;;;;;;;4990184;28;20076;-36
2021/07/30 10:58:46;;;;;;;6.93;1.17;;;;;;;;;;4991893;28;20053;-37
2021/07/30 11:01:13;;;;;;;6.80;0.90;;;;;;;;;;4991500;28;20026;-40
2021/07/30 11:03:52;;;;;;;8.00;0.93;;;;;;;;;;4991903;28;20026;-34
2021/07/30 11:06:23;;;;;;;3.17;0.93;;;;;;;;;;4991662;28;20525;-37
2021/07/30 11:09:03;;;;;;;7.38;1.00;;;;;;;;;;4990408;28;20378;-46
2021/07/30 11:11:36;;;;;;;6.68;1.30;;;;;;;;;;4991138;28;20123;-44
2021/07/30 11:14:07;;;;;;;9.85;1.48;;;;;;;;;;4991893;28;20022;-52
2021/07/30 11:16:34;;;;;;;23.15;2.10;;;;;;;;;;4991310;28;20049;-47
2021/07/30 11:19:02;;;;;;;18.63;2.33;;;;;;;;;;4991112;28;20521;-45
2021/07/30 11:21:29;;;;;;;174.30;10.63;;;;;;;;;;4990968;28;20027;-32
2021/07/30 11:23:57;;;;;;;125.00;8.13;;;;;;;;;;4990745;28;20030;-47
2021/07/30 11:26:24;;;;;;;93.38;6.50;;;;;;;;;;4991665;28;20080;-46
2021/07/30 11:28:56;;;;;;;64.85;5.25;;;;;;;;;;4990495;28;20026;-41
2021/07/30 11:31:23;;;;;;;38.90;3.45;;;;;;;;;;4990493;28;20402;-50
2021/07/30 11:33:50;;;;;;;26.63;3.10;;;;;;;;;;4989496;28;20038;-50
2021/07/30 11:36:17;;;;;;;37.15;4.07;;;;;;;;;;4991505;28;20474;-38
2021/07/30 11:38:50;;;;;;;18.42;2.70;;;;;;;;;;4991032;28;20473;-42
2021/07/30 11:41:17;;;;;;;36.33;3.50;;;;;;;;;;4991786;28;20027;-38
2021/07/30 11:44:00;;;;;;;24.35;2.15;;;;;;;;;;4991106;28;20097;-38
2021/07/30 11:46:27;;;;;;;29.90;2.60;;;;;;;;;;4991511;28;20019;-36
2021/07/30 11:48:55;;;;;;;14.32;2.53;;;;;;;;;;4991212;28;20057;-36
2021/07/30 11:51:23;;;;;;;15.77;2.05;;;;;;;;;;4991342;28;20506;-39
2021/07/30 11:53:50;;;;;;;17.45;2.33;;;;;;;;;;4991078;28;20030;-36
2021/07/30 11:56:18;;;;;;;18.40;2.33;;;;;;;;;;4991323;28;20088;-43
2021/07/30 11:58:57;;;;;;;15.30;1.85;;;;;;;;;;4990950;28;20022;-39
2021/07/30 12:01:24;;;;;;;13.73;2.17;;;;;;;;;;4990416;28;20426;-41
2021/07/30 12:04:26;;;;;;;20.08;2.42;;;;;;;;;;4990908;28;20027;-36
2021/07/30 12:06:55;;;;;;;17.00;2.45;;;;;;;;;;4931707;29;20024;-35
2021/07/30 12:09:23;;;;;;;22.75;3.03;;;;;;;;;;4983846;28;20436;-40
2021/07/30 12:11:54;;;;;;;27.92;3.83;;;;;;;;;;4994746;28;20117;-37
2021/07/30 12:14:23;;;;;;;26.98;2.85;;;;;;;;;;4994141;28;20022;-36
2021/07/30 12:16:53;;;;;;;19.42;2.95;;;;;;;;;;4994797;28;20031;-41
2021/07/30 12:19:33;;;;;;;24.42;3.35;;;;;;;;;;4993893;28;20057;-40
2021/07/30 12:22:05;;;;;;;30.23;3.13;;;;;;;;;;4994723;28;20030;-34
2021/07/30 12:24:32;;;;;;;20.27;3.33;;;;;;;;;;4992832;28;20078;-47
2021/07/30 12:27:16;;;;;;;26.38;2.97;;;;;;;;;;4994929;28;20026;-41
2021/07/30 12:29:45;;;;;;;24.00;2.95;;;;;;;;;;4994214;28;20033;-36
2021/07/30 12:32:12;;;;;;;28.48;3.00;;;;;;;;;;4994394;28;20096;-40
2021/07/30 12:34:39;;;;;;;33.10;3.40;;;;;;;;;;4994058;28;20025;-38
2021/07/30 12:37:10;;;;;;;25.05;2.45;;;;;;;;;;4994364;28;20023;-37
2021/07/30 12:39:45;;;;;;;21.35;2.63;;;;;;;;;;4993068;28;20022;-34
2021/07/30 12:42:25;;;;;;;29.35;2.53;;;;;;;;;;4993829;28;20018;-35
2021/07/30 12:45:02;;;;;;;17.35;2.25;;;;;;;;;;4994075;28;20014;-39
2021/07/30 12:47:29;;;;;;;23.83;2.72;;;;;;;;;;4993941;28;20069;-37
2021/07/30 12:49:56;;;;;;;26.33;3.72;;;;;;;;;;4994243;28;20073;-39
2021/07/30 12:52:24;;;;;;;35.50;4.20;;;;;;;;;;4993611;28;20042;-38
2021/07/30 12:55:02;;;;;;;29.23;3.50;;;;;;;;;;4993693;28;20018;-44
2021/07/30 12:57:29;;;;;;;18.67;2.55;;;;;;;;;;4993233;28;20022;-40
2021/07/30 12:59:59;;;;;;;27.33;3.70;;;;;;;;;;4993178;28;20382;-62
2021/07/30 13:02:27;;;;;;;26.90;2.70;;;;;;;;;;4992449;28;20041;-45
2021/07/30 13:04:55;;;;;;;25.85;3.10;;;;;;;;;;4992634;28;20062;-34
2021/07/30 13:07:24;;;;;;;27.77;2.83;;;;;;;;;;4992763;28;20019;-35
2021/07/30 13:09:52;;;;;;;23.60;2.90;;;;;;;;;;4992995;28;20015;-35
2021/07/30 13:12:20;;;;;;;20.48;2.55;;;;;;;;;;4990771;28;20037;-39
2021/07/30 13:14:47;;;;;;;19.63;2.75;;;;;;;;;;4990945;28;20034;-40
2021/07/30 13:17:14;;;;;;;24.98;2.65;;;;;;;;;;4992696;28;20090;-37
2021/07/30 13:19:41;;;;;;;26.25;2.55;;;;;;;;;;4991481;28;20100;-39
2021/07/30 13:22:08;;;;;;;16.58;2.50;;;;;;;;;;4983067;28;20030;-44
2021/07/30 13:24:35;;;;;;;32.28;3.35;;;;;;;;;;4990979;28;20102;-43
2021/07/30 13:27:02;;;;;;;22.63;2.70;;;;;;;;;;4990893;28;20030;-36
2021/07/30 13:29:29;;;;;;;67.53;5.85;;;;;;;;;;4992752;28;20019;-65
2021/07/30 13:31:56;;;;;;;27.67;3.28;;;;;;;;;;4992718;28;20033;-62
2021/07/30 13:34:23;;;;;;;27.33;3.78;;;;;;;;;;4991141;28;20027;-41
2021/07/30 13:36:50;;;;;;;26.95;2.92;;;;;;;;;;4991593;28;20355;-36
2021/07/30 13:39:17;;;;;;;33.58;3.35;;;;;;;;;;4990935;28;20062;-62
2021/07/30 13:41:44;;;;;;;24.08;2.63;;;;;;;;;;4992940;28;20030;-58
2021/07/30 13:44:14;;;;;;;25.33;2.85;;;;;;;;;;4991561;28;20022;-36
2021/07/30 13:46:44;;;;;;;19.80;3.08;;;;;;;;;;4991846;28;20054;-44
2021/07/30 13:49:11;;;;;;;28.38;2.60;;;;;;;;;;4991378;28;20065;-38
2021/07/30 13:51:38;;;;;;;23.63;2.42;;;;;;;;;;4992297;28;20030;-34
2021/07/30 13:54:05;;;;;;;22.65;2.78;;;;;;;;;;4991912;28;20482;-35
2021/07/30 13:56:32;;;;;;;22.88;2.45;;;;;;;;;;4991501;28;20033;-36
2021/07/30 13:58:59;;;;;;;34.05;3.22;;;;;;;;;;4991303;28;20508;-35
2021/07/30 14:01:26;;;;;;;27.02;2.67;;;;;;;;;;4991583;28;20038;-39
2021/07/30 14:03:53;;;;;;;29.65;3.47;;;;;;;;;;4992241;28;20006;-41
2021/07/30 14:06:20;;;;;;;17.20;2.95;;;;;;;;;;4990740;28;20022;-55
2021/07/30 14:08:47;;;;;;;39.95;3.38;;;;;;;;;;4991496;28;20035;-62
2021/07/30 14:11:15;;;;;;;33.45;2.80;;;;;;;;;;4990623;28;20034;-36
2021/07/30 14:13:42;;;;;;;20.88;2.47;;;;;;;;;;4991434;28;20378;-36
2021/07/30 14:16:15;;;;;;;26.05;2.88;;;;;;;;;;4991649;28;20543;-55
2021/07/30 14:18:43;;;;;;;23.80;2.30;;;;;;;;;;4992207;28;20074;-35
2021/07/30 14:21:10;;;;;;;28.65;2.55;;;;;;;;;;4985073;28;20076;-36
2021/07/30 14:23:37;;;;;;;43.33;3.08;;;;;;;;;;4992124;28;20042;-35
2021/07/30 14:26:04;;;;;;;40.17;3.05;;;;;;;;;;4990686;28;20052;-38
2021/07/30 14:28:31;;;;;;;32.58;3.17;;;;;;;;;;4991957;28;20023;-63
2021/07/30 14:30:58;;;;;;;28.17;3.03;;;;;;;;;;4990550;28;20433;-35
2021/07/30 14:33:25;;;;;;;29.58;3.00;;;;;;;;;;4991331;28;20477;-38
2021/07/30 14:35:52;;;;;;;31.33;2.97;;;;;;;;;;4989897;28;20026;-57
2021/07/30 14:38:19;;;;;;;37.42;4.07;;;;;;;;;;4991797;28;20023;-36
2021/07/30 14:40:46;;;;;;;27.10;3.03;;;;;;;;;;4991669;28;20470;-35
2021/07/30 14:43:13;;;;;;;34.03;3.35;;;;;;;;;;4990626;28;20022;-54
2021/07/30 14:45:43;;;;;;;29.55;3.08;;;;;;;;;;4990783;28;20306;-37
2021/07/30 14:48:10;;;;;;;37.42;4.13;;;;;;;;;;4991361;28;20046;-47